Time;durP1;ratioP1;P1;durP2;ratioP2;P2;SDS_P1;SDS_P2;PMS_P1;PMS_P2;Temp;Humidity;BMP_temperature;BMP_pressure;BME280_temperature;BME280_humidity;BME280_pressure;Samples;Min_cycle;Max_cycle;Signal;HPM_P1;HPM_P2
2021/08/24 00:00:58;;;;;;;9.43;4.18;;;;;;;;;;5062967;28;20017;-60
2021/08/24 00:03:23;;;;;;;10.57;4.57;;;;;;;;;;5047563;28;20017;-59
2021/08/24 00:05:49;;;;;;;8.52;4.90;;;;;;;;;;5043960;28;20028;-59
2021/08/24 00:08:15;;;;;;;10.90;4.65;;;;;;;;;;5045777;28;20127;-59
2021/08/24 00:10:50;;;;;;;8.05;4.78;;;;;;;;;;5048697;28;20045;-59
2021/08/24 00:13:17;;;;;;;8.90;5.20;;;;;;;;;;5050483;28;20052;-59
2021/08/24 00:15:44;;;;;;;7.97;4.68;;;;;;;;;;5046716;28;20059;-60
2021/08/24 00:18:11;;;;;;;7.10;4.40;;;;;;;;;;5047538;28;20033;-59
2021/08/24 00:20:38;;;;;;;8.80;4.80;;;;;;;;;;5047476;28;20111;-59
2021/08/24 00:23:07;;;;;;;9.43;5.20;;;;;;;;;;5046639;28;20104;-59
2021/08/24 00:25:33;;;;;;;7.78;4.88;;;;;;;;;;5047443;28;20514;-59
2021/08/24 00:27:59;;;;;;;8.45;4.60;;;;;;;;;;5047966;28;20041;-60
2021/08/24 00:30:24;;;;;;;8.50;5.13;;;;;;;;;;5048642;28;20082;-59
2021/08/24 00:32:50;;;;;;;7.40;4.80;;;;;;;;;;5046660;28;20094;-60
2021/08/24 00:35:15;;;;;;;10.85;5.70;;;;;;;;;;5045194;28;20818;-60
2021/08/24 00:37:41;;;;;;;18.10;5.65;;;;;;;;;;5049710;28;20029;-59
2021/08/24 00:40:08;;;;;;;9.32;5.07;;;;;;;;;;5047306;28;20028;-59
2021/08/24 00:42:34;;;;;;;8.48;5.38;;;;;;;;;;5047070;28;20444;-60
2021/08/24 00:44:59;;;;;;;10.40;5.97;;;;;;;;;;5048292;28;20052;-60
2021/08/24 00:47:29;;;;;;;10.50;5.30;;;;;;;;;;5047243;28;20041;-60
2021/08/24 00:49:59;;;;;;;;;;;;;;;;;;5047465;28;20087;-59
2021/08/24 00:52:24;;;;;;;8.30;4.35;;;;;;;;;;5051102;28;20251;-59
2021/08/24 00:54:50;;;;;;;9.07;4.70;;;;;;;;;;5048495;28;20112;-60
2021/08/24 00:57:21;;;;;;;7.18;4.47;;;;;;;;;;5045749;28;20024;-60
2021/08/24 00:59:50;;;;;;;10.48;4.63;;;;;;;;;;5048398;28;20415;-59
2021/08/24 01:02:17;;;;;;;7.90;4.70;;;;;;;;;;5046679;28;20459;-60
2021/08/24 01:04:45;;;;;;;8.93;4.78;;;;;;;;;;5046553;28;20040;-60
2021/08/24 01:07:25;;;;;;;12.05;5.03;;;;;;;;;;5045496;28;20029;-60
2021/08/24 01:10:02;;;;;;;8.90;4.63;;;;;;;;;;5045075;28;20545;-59
2021/08/24 01:12:34;;;;;;;7.40;4.88;;;;;;;;;;5044744;28;20025;-59
2021/08/24 01:15:08;;;;;;;7.90;4.43;;;;;;;;;;5061652;28;20119;-59
2021/08/24 01:17:44;;;;;;;8.68;5.00;;;;;;;;;;5046190;28;20075;-60
2021/08/24 01:20:12;;;;;;;7.57;4.35;;;;;;;;;;5046770;28;20029;-59
2021/08/24 01:23:02;;;;;;;7.50;4.70;;;;;;;;;;5046590;28;20438;-59
2021/08/24 01:25:54;;;;;;;8.05;4.63;;;;;;;;;;5048493;28;20064;-60
2021/08/24 01:28:48;;;;;;;7.70;5.00;;;;;;;;;;5053228;28;20056;-60
2021/08/24 01:31:36;;;;;;;8.90;4.47;;;;;;;;;;5045646;28;20056;-60
2021/08/24 01:34:29;;;;;;;8.63;4.47;;;;;;;;;;5049167;28;20039;-59
2021/08/24 01:37:11;;;;;;;6.20;4.15;;;;;;;;;;5049151;28;20040;-60
2021/08/24 01:39:43;;;;;;;7.13;3.97;;;;;;;;;;5050083;28;20499;-59
2021/08/24 01:42:18;;;;;;;8.15;4.30;;;;;;;;;;5051182;28;20033;-59
2021/08/24 01:45:19;;;;;;;7.70;4.40;;;;;;;;;;5069133;28;20329;-59
2021/08/24 01:48:04;;;;;;;8.95;4.55;;;;;;;;;;5028194;28;20040;-59
2021/08/24 01:50:58;;;;;;;7.72;3.80;;;;;;;;;;5051936;28;20138;-59
2021/08/24 01:53:35;;;;;;;9.27;4.57;;;;;;;;;;5049969;28;20044;-59
2021/08/24 01:56:15;;;;;;;6.85;4.03;;;;;;;;;;5051205;28;20036;-59
2021/08/24 01:58:50;;;;;;;6.30;3.58;;;;;;;;;;5049593;28;20398;-59
2021/08/24 02:01:19;;;;;;;7.85;4.13;;;;;;;;;;5049151;28;20033;-59
2021/08/24 02:03:51;;;;;;;6.10;3.55;;;;;;;;;;5050394;28;20539;-59
2021/08/24 02:06:35;;;;;;;6.78;3.95;;;;;;;;;;5051666;28;20396;-59
2021/08/24 02:09:05;;;;;;;10.18;4.25;;;;;;;;;;5048937;28;20043;-59
2021/08/24 02:11:33;;;;;;;7.43;4.03;;;;;;;;;;5048950;28;20492;-59
2021/08/24 02:14:03;;;;;;;8.40;4.30;;;;;;;;;;5051429;28;20484;-60
2021/08/24 02:16:31;;;;;;;9.30;3.90;;;;;;;;;;5053038;28;20082;-59
2021/08/24 02:19:02;;;;;;;9.38;4.30;;;;;;;;;;5051823;28;20029;-59
2021/08/24 02:21:32;;;;;;;7.30;3.95;;;;;;;;;;5049288;28;20017;-59
2021/08/24 02:24:03;;;;;;;8.35;3.83;;;;;;;;;;5047541;28;20495;-59
2021/08/24 02:26:31;;;;;;;8.27;4.05;;;;;;;;;;5049266;28;20039;-59
2021/08/24 02:28:58;;;;;;;9.20;4.30;;;;;;;;;;5061157;28;20029;-60
2021/08/24 02:31:35;;;;;;;8.35;4.25;;;;;;;;;;5051852;28;20040;-59
2021/08/24 02:34:14;;;;;;;9.23;4.53;;;;;;;;;;5049785;28;20522;-59
2021/08/24 02:37:06;;;;;;;12.27;4.53;;;;;;;;;;5047698;28;20513;-59
2021/08/24 02:39:57;;;;;;;9.18;4.22;;;;;;;;;;5042753;28;20044;-59
2021/08/24 02:42:31;;;;;;;6.50;3.92;;;;;;;;;;5050878;28;20484;-59
2021/08/24 02:45:13;;;;;;;8.15;3.88;;;;;;;;;;5045953;28;20028;-59
2021/08/24 02:47:39;;;;;;;8.30;3.80;;;;;;;;;;5049344;28;20068;-59
2021/08/24 02:50:06;;;;;;;10.43;4.70;;;;;;;;;;5051563;28;20025;-59
2021/08/24 02:52:33;;;;;;;10.70;4.32;;;;;;;;;;5051905;28;20041;-59
2021/08/24 02:54:59;;;;;;;11.52;4.35;;;;;;;;;;5048949;28;20032;-59
2021/08/24 02:57:25;;;;;;;7.00;4.18;;;;;;;;;;5048136;28;20479;-59
2021/08/24 02:59:50;;;;;;;7.90;4.10;;;;;;;;;;5049427;28;20052;-59
2021/08/24 03:02:16;;;;;;;6.97;4.20;;;;;;;;;;5047611;28;20067;-59
2021/08/24 03:04:41;;;;;;;9.82;4.95;;;;;;;;;;5048722;28;20036;-59
2021/08/24 03:07:15;;;;;;;9.15;4.57;;;;;;;;;;5045760;28;20021;-59
2021/08/24 03:09:43;;;;;;;9.70;4.85;;;;;;;;;;5046735;28;20036;-59
2021/08/24 03:12:29;;;;;;;6.43;4.57;;;;;;;;;;5053794;28;20541;-59
2021/08/24 03:15:20;;;;;;;8.80;4.25;;;;;;;;;;5051434;28;20041;-59
2021/08/24 03:17:56;;;;;;;8.38;5.03;;;;;;;;;;5049070;28;20025;-59
2021/08/24 03:20:26;;;;;;;7.18;4.10;;;;;;;;;;5063901;28;20025;-59
2021/08/24 03:22:53;;;;;;;8.48;4.68;;;;;;;;;;5046738;28;20024;-59
2021/08/24 03:25:18;;;;;;;8.18;4.90;;;;;;;;;;5049763;28;20497;-59
2021/08/24 03:27:47;;;;;;;8.75;4.20;;;;;;;;;;5047803;28;20130;-59
2021/08/24 03:30:15;;;;;;;9.38;3.88;;;;;;;;;;5050225;28;20043;-59
2021/08/24 03:32:42;;;;;;;7.88;4.38;;;;;;;;;;5047187;28;20024;-59
2021/08/24 03:35:09;;;;;;;6.82;4.05;;;;;;;;;;5048218;28;20029;-59
2021/08/24 03:37:35;;;;;;;8.10;4.20;;;;;;;;;;5046276;28;20091;-59
2021/08/24 03:40:02;;;;;;;8.68;4.15;;;;;;;;;;5050398;28;20141;-59
2021/08/24 03:42:27;;;;;;;9.50;4.50;;;;;;;;;;5048278;28;20060;-59
2021/08/24 03:44:53;;;;;;;7.82;4.10;;;;;;;;;;5047505;28;20049;-60
2021/08/24 03:47:18;;;;;;;8.18;4.15;;;;;;;;;;5048279;28;20542;-59
2021/08/24 03:49:44;;;;;;;6.70;3.80;;;;;;;;;;5048829;28;20036;-59
2021/08/24 03:52:10;;;;;;;8.38;3.90;;;;;;;;;;5043707;28;20031;-59
2021/08/24 03:54:36;;;;;;;7.80;3.90;;;;;;;;;;5050127;28;20032;-59
2021/08/24 03:57:01;;;;;;;7.75;4.07;;;;;;;;;;5047439;28;20033;-59
2021/08/24 03:59:27;;;;;;;11.75;4.50;;;;;;;;;;5049424;28;20040;-59
2021/08/24 04:01:52;;;;;;;11.63;4.40;;;;;;;;;;5047534;28;20100;-59
2021/08/24 04:04:18;;;;;;;11.30;4.53;;;;;;;;;;5049816;28;20044;-59
2021/08/24 04:06:43;;;;;;;15.02;4.47;;;;;;;;;;5047272;28;20131;-59
2021/08/24 04:09:09;;;;;;;7.43;4.50;;;;;;;;;;5047492;28;20121;-59
2021/08/24 04:11:34;;;;;;;6.90;3.97;;;;;;;;;;5047197;28;20064;-59
2021/08/24 04:14:00;;;;;;;10.55;4.60;;;;;;;;;;5047632;28;20106;-59
2021/08/24 04:16:25;;;;;;;10.63;4.65;;;;;;;;;;5052801;28;20499;-60
2021/08/24 04:18:51;;;;;;;10.48;4.30;;;;;;;;;;5047239;28;20025;-59
2021/08/24 04:21:18;;;;;;;8.90;4.40;;;;;;;;;;5045354;28;20522;-59
2021/08/24 04:23:46;;;;;;;6.13;4.20;;;;;;;;;;5048293;28;20032;-59
2021/08/24 04:26:12;;;;;;;7.75;4.80;;;;;;;;;;5047239;28;20510;-59
2021/08/24 04:28:37;;;;;;;9.75;4.28;;;;;;;;;;5046701;28;20025;-59
2021/08/24 04:31:04;;;;;;;10.75;4.95;;;;;;;;;;5045179;28;20017;-60
2021/08/24 04:33:31;;;;;;;7.68;4.90;;;;;;;;;;5047211;28;20561;-59
2021/08/24 04:35:56;;;;;;;10.13;4.78;;;;;;;;;;5047319;28;20037;-60
2021/08/24 04:38:22;;;;;;;7.60;4.28;;;;;;;;;;5048255;28;20090;-60
2021/08/24 04:40:50;;;;;;;7.72;4.45;;;;;;;;;;5048519;28;20028;-59
2021/08/24 04:43:17;;;;;;;10.38;4.32;;;;;;;;;;5045167;28;20407;-59
2021/08/24 04:45:42;;;;;;;9.15;5.18;;;;;;;;;;5051450;28;20146;-59
2021/08/24 04:48:08;;;;;;;7.70;4.90;;;;;;;;;;5048585;28;20116;-60
2021/08/24 04:50:35;;;;;;;8.48;4.43;;;;;;;;;;5048558;28;20111;-59
2021/08/24 04:53:00;;;;;;;9.23;4.72;;;;;;;;;;5047810;28;20098;-60
2021/08/24 04:55:26;;;;;;;8.50;4.40;;;;;;;;;;5061892;28;20037;-59
2021/08/24 04:57:51;;;;;;;10.70;5.25;;;;;;;;;;5048213;28;20052;-57
2021/08/24 05:00:17;;;;;;;9.05;4.43;;;;;;;;;;5047837;28;20483;-57
2021/08/24 05:02:43;;;;;;;9.13;4.78;;;;;;;;;;5046579;28;20032;-59
2021/08/24 05:05:09;;;;;;;9.80;4.82;;;;;;;;;;5044530;28;20029;-60
2021/08/24 05:07:34;;;;;;;8.27;4.40;;;;;;;;;;5044882;28;20048;-58
2021/08/24 05:10:01;;;;;;;9.57;4.88;;;;;;;;;;5065342;28;20079;-58
2021/08/24 05:12:27;;;;;;;9.38;4.55;;;;;;;;;;5045501;28;20170;-58
2021/08/24 05:14:53;;;;;;;8.38;4.43;;;;;;;;;;5048270;28;20060;-58
2021/08/24 05:17:18;;;;;;;9.13;5.05;;;;;;;;;;5048742;28;20044;-58
2021/08/24 05:19:44;;;;;;;10.43;4.68;;;;;;;;;;5047869;28;20459;-58
2021/08/24 05:22:09;;;;;;;10.23;5.05;;;;;;;;;;5046234;28;20440;-58
2021/08/24 05:24:34;;;;;;;9.02;4.78;;;;;;;;;;5046638;28;20036;-58
2021/08/24 05:27:01;;;;;;;10.10;5.47;;;;;;;;;;5061982;28;20151;-59
2021/08/24 05:29:27;;;;;;;6.88;4.70;;;;;;;;;;5045450;28;20052;-58
2021/08/24 05:31:52;;;;;;;8.70;4.93;;;;;;;;;;5052819;28;20410;-58
2021/08/24 05:34:18;;;;;;;15.05;7.10;;;;;;;;;;5048718;28;20025;-58
2021/08/24 05:36:43;;;;;;;11.60;6.28;;;;;;;;;;5046580;28;20422;-58
2021/08/24 05:39:09;;;;;;;14.93;6.72;;;;;;;;;;5051173;28;20283;-58
2021/08/24 05:41:36;;;;;;;9.02;5.03;;;;;;;;;;5046095;28;20107;-58
2021/08/24 05:44:02;;;;;;;10.80;5.90;;;;;;;;;;5048323;28;20025;-58
2021/08/24 05:46:27;;;;;;;12.07;5.30;;;;;;;;;;5048074;28;20051;-58
2021/08/24 05:48:52;;;;;;;10.90;5.80;;;;;;;;;;5046289;28;20020;-58
2021/08/24 05:51:20;;;;;;;10.98;6.20;;;;;;;;;;5046091;28;20120;-58
2021/08/24 05:53:46;;;;;;;8.35;5.60;;;;;;;;;;5048052;28;20546;-58
2021/08/24 05:56:15;;;;;;;16.92;13.20;;;;;;;;;;5048753;28;20103;-58
2021/08/24 05:58:41;;;;;;;16.30;10.75;;;;;;;;;;5047129;28;20096;-58
2021/08/24 06:01:08;;;;;;;15.23;10.50;;;;;;;;;;5047137;28;20032;-58
2021/08/24 06:03:37;;;;;;;13.20;8.60;;;;;;;;;;5047820;28;20112;-58
2021/08/24 06:06:03;;;;;;;10.05;6.13;;;;;;;;;;5046857;28;20021;-58
2021/08/24 06:08:28;;;;;;;11.05;5.97;;;;;;;;;;5045489;28;20488;-58
2021/08/24 06:10:54;;;;;;;14.48;6.32;;;;;;;;;;5063127;28;20036;-58
2021/08/24 06:13:19;;;;;;;13.88;6.72;;;;;;;;;;5051480;28;20095;-58
2021/08/24 06:15:45;;;;;;;10.73;5.93;;;;;;;;;;5048947;28;20120;-58
2021/08/24 06:18:10;;;;;;;15.05;8.20;;;;;;;;;;5046791;28;20029;-58
2021/08/24 06:20:37;;;;;;;14.75;7.28;;;;;;;;;;5049308;28;20135;-58
2021/08/24 06:23:02;;;;;;;15.70;8.10;;;;;;;;;;5048702;28;20031;-58
2021/08/24 06:25:28;;;;;;;14.95;7.60;;;;;;;;;;5050532;28;20044;-58
2021/08/24 06:27:53;;;;;;;14.30;7.78;;;;;;;;;;5048777;28;20029;-58
2021/08/24 06:30:20;;;;;;;13.27;8.00;;;;;;;;;;5048189;28;20037;-58
2021/08/24 06:32:50;;;;;;;15.98;8.82;;;;;;;;;;5050296;28;20472;-58
2021/08/24 06:35:18;;;;;;;15.50;10.65;;;;;;;;;;5064816;28;20090;-58
2021/08/24 06:37:44;;;;;;;20.02;9.23;;;;;;;;;;5050219;28;20021;-58
2021/08/24 06:40:11;;;;;;;20.85;8.52;;;;;;;;;;5049965;28;20028;-58
2021/08/24 06:42:42;;;;;;;13.32;7.78;;;;;;;;;;5049670;28;20458;-58
2021/08/24 06:45:11;;;;;;;16.40;8.32;;;;;;;;;;5049696;28;20025;-57
2021/08/24 06:47:37;;;;;;;22.73;10.10;;;;;;;;;;5063964;28;20171;-58
2021/08/24 06:50:02;;;;;;;16.30;8.85;;;;;;;;;;5049116;28;20116;-57
2021/08/24 06:52:28;;;;;;;14.10;8.38;;;;;;;;;;5051427;28;20123;-57
2021/08/24 06:54:53;;;;;;;17.48;8.95;;;;;;;;;;5052922;28;20052;-58
2021/08/24 06:57:18;;;;;;;15.57;7.97;;;;;;;;;;5049859;28;20017;-57
2021/08/24 06:59:44;;;;;;;13.23;7.50;;;;;;;;;;5047685;28;20503;-57
2021/08/24 07:02:09;;;;;;;16.40;8.48;;;;;;;;;;5047818;28;20395;-58
2021/08/24 07:04:35;;;;;;;16.23;8.38;;;;;;;;;;5051655;28;20043;-57
2021/08/24 07:07:00;;;;;;;15.82;8.40;;;;;;;;;;5048073;28;20036;-58
2021/08/24 07:09:25;;;;;;;15.55;8.07;;;;;;;;;;5048124;28;20029;-58
2021/08/24 07:11:51;;;;;;;13.18;7.60;;;;;;;;;;5050661;28;20051;-58
2021/08/24 07:14:16;;;;;;;13.20;7.97;;;;;;;;;;5050243;28;20029;-58
2021/08/24 07:16:44;;;;;;;14.95;7.93;;;;;;;;;;5047961;28;20055;-58
2021/08/24 07:19:09;;;;;;;14.85;7.53;;;;;;;;;;5049409;28;20029;-58
2021/08/24 07:21:35;;;;;;;19.15;8.98;;;;;;;;;;5047858;28;20033;-58
2021/08/24 07:24:01;;;;;;;14.77;8.27;;;;;;;;;;5053629;28;20032;-58
2021/08/24 07:26:26;;;;;;;13.98;8.63;;;;;;;;;;5045924;28;20037;-58
2021/08/24 07:28:52;;;;;;;14.93;8.88;;;;;;;;;;5047614;28;20031;-58
2021/08/24 07:31:18;;;;;;;18.65;9.25;;;;;;;;;;5047223;28;20443;-59
2021/08/24 07:33:44;;;;;;;18.48;9.27;;;;;;;;;;5048074;28;20452;-59
2021/08/24 07:36:09;;;;;;;18.42;8.88;;;;;;;;;;5047205;28;20119;-59
2021/08/24 07:38:35;;;;;;;16.60;8.32;;;;;;;;;;5048494;28;20021;-59
2021/08/24 07:41:00;;;;;;;17.88;9.50;;;;;;;;;;5049592;28;20036;-59
2021/08/24 07:43:26;;;;;;;18.38;8.77;;;;;;;;;;5054126;28;20119;-59
2021/08/24 07:45:51;;;;;;;19.15;9.20;;;;;;;;;;5046125;28;20021;-59
2021/08/24 07:48:17;;;;;;;18.27;8.80;;;;;;;;;;5048777;28;20210;-59
2021/08/24 07:50:43;;;;;;;17.13;8.88;;;;;;;;;;5050775;28;20484;-58
2021/08/24 07:53:08;;;;;;;15.50;8.85;;;;;;;;;;5045773;28;20025;-58
2021/08/24 07:55:35;;;;;;;14.88;8.07;;;;;;;;;;5049651;28;20037;-58
2021/08/24 07:58:02;;;;;;;15.38;9.27;;;;;;;;;;5048008;28;20025;-58
2021/08/24 08:00:27;;;;;;;15.60;9.52;;;;;;;;;;5049179;28;20098;-58
2021/08/24 08:02:53;;;;;;;21.30;8.73;;;;;;;;;;5049407;28;20060;-58
2021/08/24 08:05:18;;;;;;;17.08;9.07;;;;;;;;;;5048627;28;20422;-58
2021/08/24 08:07:44;;;;;;;17.20;8.57;;;;;;;;;;5046134;28;20756;-58
2021/08/24 08:10:10;;;;;;;14.40;8.13;;;;;;;;;;5046934;28;20043;-58
2021/08/24 08:12:36;;;;;;;15.52;8.57;;;;;;;;;;5047358;28;20029;-58
2021/08/24 08:15:05;;;;;;;13.32;8.18;;;;;;;;;;5048152;28;20397;-58
2021/08/24 08:17:30;;;;;;;19.70;8.25;;;;;;;;;;5050556;28;20060;-58
2021/08/24 08:19:56;;;;;;;17.55;8.60;;;;;;;;;;5046270;28;20056;-58
2021/08/24 08:22:21;;;;;;;17.25;7.68;;;;;;;;;;5047898;28;20032;-58
2021/08/24 08:24:48;;;;;;;17.00;8.63;;;;;;;;;;5048982;28;20167;-58
2021/08/24 08:27:13;;;;;;;15.27;8.93;;;;;;;;;;5047031;28;20041;-57
2021/08/24 08:29:38;;;;;;;13.63;7.70;;;;;;;;;;5047171;28;20040;-58
2021/08/24 08:32:08;;;;;;;13.85;7.57;;;;;;;;;;5046308;28;20361;-58
2021/08/24 08:34:34;;;;;;;15.68;8.20;;;;;;;;;;5050608;28;20415;-58
2021/08/24 08:36:59;;;;;;;15.50;7.72;;;;;;;;;;5047198;28;20029;-58
2021/08/24 08:39:25;;;;;;;14.45;8.05;;;;;;;;;;5048068;28;20029;-58
2021/08/24 08:42:12;;;;;;;15.02;8.18;;;;;;;;;;5047511;28;20106;-58
2021/08/24 08:44:43;;;;;;;16.08;7.53;;;;;;;;;;5046052;28;20356;-58
2021/08/24 08:47:24;;;;;;;13.38;7.20;;;;;;;;;;5061208;28;20123;-58
2021/08/24 08:49:58;;;;;;;14.73;7.93;;;;;;;;;;5060028;28;20089;-58
2021/08/24 08:52:45;;;;;;;17.85;8.60;;;;;;;;;;5046621;28;20376;-58
2021/08/24 08:55:18;;;;;;;14.18;8.60;;;;;;;;;;5049297;28;20094;-58
2021/08/24 08:57:53;;;;;;;18.20;9.88;;;;;;;;;;5047627;28;20364;-58
2021/08/24 09:00:26;;;;;;;20.48;10.48;;;;;;;;;;5063493;28;20029;-59
2021/08/24 09:03:08;;;;;;;20.10;9.75;;;;;;;;;;5045153;28;20056;-58
2021/08/24 09:05:34;;;;;;;17.75;9.57;;;;;;;;;;5049349;28;20036;-57
2021/08/24 09:08:00;;;;;;;14.88;8.77;;;;;;;;;;5046311;28;20029;-58
2021/08/24 09:10:35;;;;;;;16.80;9.48;;;;;;;;;;5061631;28;20499;-58
2021/08/24 09:13:20;;;;;;;18.98;9.05;;;;;;;;;;5044908;28;20070;-58
2021/08/24 09:15:52;;;;;;;15.13;8.55;;;;;;;;;;5034458;28;20041;-58
2021/08/24 09:18:23;;;;;;;16.00;8.98;;;;;;;;;;5044469;28;20017;-58
2021/08/24 09:21:10;;;;;;;15.98;8.80;;;;;;;;;;5046298;28;20159;-58
2021/08/24 09:23:36;;;;;;;16.83;9.60;;;;;;;;;;5046182;28;20124;-58
2021/08/24 09:26:15;;;;;;;15.63;9.18;;;;;;;;;;5046358;28;20160;-58
2021/08/24 09:28:41;;;;;;;19.38;9.07;;;;;;;;;;5045609;28;20549;-58
2021/08/24 09:31:23;;;;;;;18.38;9.68;;;;;;;;;;5045026;28;20067;-58
2021/08/24 09:33:49;;;;;;;16.67;9.00;;;;;;;;;;5045757;28;20079;-58
2021/08/24 09:36:16;;;;;;;18.35;8.80;;;;;;;;;;5049121;28;20037;-58
2021/08/24 09:38:54;;;;;;;17.73;9.55;;;;;;;;;;5046075;28;20196;-58
2021/08/24 09:41:29;;;;;;;17.23;8.82;;;;;;;;;;5046611;28;20056;-58
2021/08/24 09:43:57;;;;;;;17.33;9.20;;;;;;;;;;5047611;28;20040;-58
2021/08/24 09:46:36;;;;;;;15.52;9.55;;;;;;;;;;5045443;28;20495;-58
2021/08/24 09:49:27;;;;;;;14.77;9.10;;;;;;;;;;5050213;28;20029;-58
2021/08/24 09:52:00;;;;;;;14.45;8.40;;;;;;;;;;5041609;28;20040;-58
2021/08/24 09:54:49;;;;;;;19.30;9.40;;;;;;;;;;5052711;28;20112;-58
2021/08/24 09:57:17;;;;;;;15.88;8.20;;;;;;;;;;5065968;28;20035;-58
2021/08/24 09:59:58;;;;;;;14.45;8.65;;;;;;;;;;5052189;28;20671;-59
2021/08/24 10:02:38;;;;;;;13.65;8.57;;;;;;;;;;5048248;28;20118;-59
2021/08/24 10:05:24;;;;;;;15.07;8.63;;;;;;;;;;5065115;28;20035;-59
2021/08/24 10:07:53;;;;;;;14.35;7.90;;;;;;;;;;5042159;28;20617;-58
2021/08/24 10:10:25;;;;;;;13.23;8.20;;;;;;;;;;5051118;28;20047;-58
2021/08/24 10:12:52;;;;;;;15.38;9.43;;;;;;;;;;5050128;28;20024;-58
2021/08/24 10:15:29;;;;;;;13.98;9.18;;;;;;;;;;5054708;28;20059;-58
2021/08/24 10:18:22;;;;;;;18.05;8.75;;;;;;;;;;5048556;28;20029;-59
2021/08/24 10:20:59;;;;;;;16.25;8.95;;;;;;;;;;5040200;28;20041;-58
2021/08/24 10:23:37;;;;;;;15.27;8.38;;;;;;;;;;5050877;28;20078;-58
2021/08/24 10:26:20;;;;;;;14.48;9.10;;;;;;;;;;5054614;28;20082;-58
2021/08/24 10:28:52;;;;;;;15.30;8.70;;;;;;;;;;5048879;28;20098;-59
2021/08/24 10:31:39;;;;;;;17.50;10.10;;;;;;;;;;5048721;28;20037;-58
2021/08/24 10:34:12;;;;;;;14.75;9.95;;;;;;;;;;5050892;28;20036;-59
2021/08/24 10:36:44;;;;;;;20.15;11.38;;;;;;;;;;5050839;28;20051;-60
2021/08/24 10:39:22;;;;;;;17.52;10.15;;;;;;;;;;5049121;28;20052;-59
2021/08/24 10:42:03;;;;;;;15.00;8.20;;;;;;;;;;5049390;28;21304;-59
2021/08/24 10:44:40;;;;;;;16.67;9.52;;;;;;;;;;5054334;28;20023;-59
2021/08/24 10:47:43;;;;;;;16.80;10.38;;;;;;;;;;5048609;28;20044;-59
2021/08/24 10:50:20;;;;;;;17.95;10.43;;;;;;;;;;5050550;28;20025;-59
2021/08/24 10:52:58;;;;;;;17.73;9.63;;;;;;;;;;5052794;28;20502;-59
2021/08/24 10:55:28;;;;;;;15.83;9.43;;;;;;;;;;5061623;28;20037;-59
2021/08/24 10:58:01;;;;;;;11.90;7.63;;;;;;;;;;5046267;28;20295;-60
2021/08/24 11:00:42;;;;;;;15.32;8.95;;;;;;;;;;5047135;28;20393;-59
2021/08/24 11:03:47;;;;;;;12.85;8.23;;;;;;;;;;5049749;28;20020;-59
2021/08/24 11:06:31;;;;;;;12.88;8.40;;;;;;;;;;5048385;28;20407;-59
2021/08/24 11:09:12;;;;;;;13.05;8.68;;;;;;;;;;5047133;28;20522;-59
2021/08/24 11:12:10;;;;;;;12.90;8.60;;;;;;;;;;5047577;28;20034;-59
2021/08/24 11:14:55;;;;;;;13.25;8.15;;;;;;;;;;5048990;28;20555;-59
2021/08/24 11:17:31;;;;;;;12.52;7.75;;;;;;;;;;5049840;28;20115;-59
2021/08/24 11:20:24;;;;;;;14.63;9.18;;;;;;;;;;5049260;28;20025;-60
2021/08/24 11:22:57;;;;;;;13.57;8.07;;;;;;;;;;5064448;28;20442;-59
2021/08/24 11:25:25;;;;;;;12.85;8.40;;;;;;;;;;5044652;28;20106;-59
2021/08/24 11:27:57;;;;;;;14.07;7.95;;;;;;;;;;5048785;28;20102;-59
2021/08/24 11:30:40;;;;;;;12.13;8.32;;;;;;;;;;5048890;28;20120;-60
2021/08/24 11:33:55;;;;;;;10.43;7.53;;;;;;;;;;5046071;28;20025;-59
2021/08/24 11:36:31;;;;;;;13.35;8.48;;;;;;;;;;5031675;28;20051;-59
2021/08/24 11:39:16;;;;;;;15.77;8.70;;;;;;;;;;5048996;28;20020;-60
2021/08/24 11:41:44;;;;;;;14.25;8.02;;;;;;;;;;5048386;28;20032;-59
2021/08/24 11:44:20;;;;;;;14.32;8.07;;;;;;;;;;5050922;28;20082;-59
2021/08/24 11:46:54;;;;;;;13.20;8.23;;;;;;;;;;5051318;28;20048;-59
2021/08/24 11:49:31;;;;;;;14.07;9.05;;;;;;;;;;5048103;28;20032;-59
2021/08/24 11:52:20;;;;;;;15.80;9.80;;;;;;;;;;5046480;28;20025;-59
2021/08/24 11:55:04;;;;;;;15.30;8.68;;;;;;;;;;5046906;28;20033;-59
2021/08/24 11:57:41;;;;;;;14.82;9.07;;;;;;;;;;5052062;28;20024;-59
2021/08/24 12:00:10;;;;;;;13.20;8.80;;;;;;;;;;5047305;28;20134;-59
2021/08/24 12:02:45;;;;;;;13.93;8.32;;;;;;;;;;5047231;28;20036;-59
2021/08/24 12:05:22;;;;;;;11.77;8.05;;;;;;;;;;5050742;28;20024;-59
2021/08/24 12:08:13;;;;;;;13.85;7.97;;;;;;;;;;5049861;28;20029;-59
2021/08/24 12:11:07;;;;;;;16.00;8.50;;;;;;;;;;5063366;28;20028;-59
2021/08/24 12:13:42;;;;;;;14.30;8.35;;;;;;;;;;5045621;28;20021;-60
2021/08/24 12:16:29;;;;;;;14.10;8.10;;;;;;;;;;5047643;28;20108;-60
2021/08/24 12:19:17;;;;;;;12.73;7.35;;;;;;;;;;5049931;28;20455;-59
2021/08/24 12:21:58;;;;;;;11.20;7.70;;;;;;;;;;5042477;28;20033;-58
2021/08/24 12:24:23;;;;;;;12.65;8.68;;;;;;;;;;5046393;28;20035;-58
2021/08/24 12:27:09;;;;;;;13.43;7.97;;;;;;;;;;5047344;28;20025;-58
2021/08/24 12:29:34;;;;;;;15.27;7.95;;;;;;;;;;5047327;28;20044;-58
2021/08/24 12:32:20;;;;;;;11.55;8.57;;;;;;;;;;5047511;28;20032;-60
2021/08/24 12:34:51;;;;;;;13.75;7.68;;;;;;;;;;5018218;28;20525;-59
2021/08/24 12:37:19;;;;;;;13.77;7.55;;;;;;;;;;5045887;28;20025;-60
2021/08/24 12:39:47;;;;;;;12.95;8.45;;;;;;;;;;5048737;28;20598;-60
2021/08/24 12:42:15;;;;;;;12.32;7.40;;;;;;;;;;5049600;28;20123;-60
2021/08/24 12:44:51;;;;;;;10.90;7.68;;;;;;;;;;5048362;28;20138;-59
2021/08/24 12:47:30;;;;;;;22.70;12.10;;;;;;;;;;5044615;28;20048;-60
2021/08/24 12:50:28;;;;;;;11.15;7.80;;;;;;;;;;5047027;28;20474;-57
2021/08/24 12:53:15;;;;;;;9.73;6.93;;;;;;;;;;5045375;28;20071;-58
2021/08/24 12:55:42;;;;;;;11.60;6.75;;;;;;;;;;5045724;28;20356;-59
2021/08/24 12:58:27;;;;;;;11.18;7.43;;;;;;;;;;5049272;28;20855;-60
2021/08/24 13:01:20;;;;;;;10.15;7.47;;;;;;;;;;5048534;28;20491;-60
2021/08/24 13:03:58;;;;;;;9.38;6.68;;;;;;;;;;5061452;28;20515;-60
2021/08/24 13:06:28;;;;;;;9.63;6.90;;;;;;;;;;5045916;28;20051;-60
2021/08/24 13:09:25;;;;;;;8.32;6.70;;;;;;;;;;5045648;28;20487;-60
2021/08/24 13:12:16;;;;;;;9.80;7.63;;;;;;;;;;5046248;28;20078;-60
2021/08/24 13:14:48;;;;;;;10.70;6.82;;;;;;;;;;5048503;28;20027;-60
2021/08/24 13:17:19;;;;;;;10.15;6.75;;;;;;;;;;5049490;28;20101;-60
2021/08/24 13:19:55;;;;;;;9.85;7.07;;;;;;;;;;5046703;28;20025;-60
2021/08/24 13:22:39;;;;;;;10.23;7.45;;;;;;;;;;5044963;28;20404;-60
2021/08/24 13:25:11;;;;;;;8.88;7.05;;;;;;;;;;5045908;28;20311;-59
2021/08/24 13:27:44;;;;;;;9.23;7.13;;;;;;;;;;5044670;28;20074;-59
2021/08/24 13:30:16;;;;;;;9.93;6.97;;;;;;;;;;5045845;28;20112;-60
2021/08/24 13:32:41;;;;;;;8.98;6.82;;;;;;;;;;5060478;28;20024;-60
2021/08/24 13:35:49;;;;;;;9.30;7.15;;;;;;;;;;5047483;28;20029;-60
2021/08/24 13:38:30;;;;;;;11.25;6.43;;;;;;;;;;5026280;28;20048;-60
2021/08/24 13:41:12;;;;;;;10.80;6.45;;;;;;;;;;5048300;28;20063;-60
2021/08/24 13:43:44;;;;;;;9.43;6.90;;;;;;;;;;5047464;28;20051;-60
2021/08/24 13:46:10;;;;;;;9.85;6.93;;;;;;;;;;5047531;28;20547;-60
2021/08/24 13:48:37;;;;;;;8.48;6.57;;;;;;;;;;5044937;28;20041;-59
2021/08/24 13:51:08;;;;;;;9.20;5.55;;;;;;;;;;5046333;28;20029;-59
2021/08/24 13:53:36;;;;;;;8.43;6.13;;;;;;;;;;5044555;28;20120;-59
2021/08/24 13:56:07;;;;;;;13.07;6.60;;;;;;;;;;5045239;28;20037;-60
2021/08/24 13:58:39;;;;;;;10.68;6.60;;;;;;;;;;5044672;28;20119;-59
2021/08/24 14:01:07;;;;;;;10.63;6.75;;;;;;;;;;5045639;28;20793;-59
2021/08/24 14:04:02;;;;;;;8.93;6.35;;;;;;;;;;5046928;28;20029;-60
2021/08/24 14:06:37;;;;;;;9.02;6.43;;;;;;;;;;5039526;28;20508;-59
2021/08/24 14:09:21;;;;;;;9.63;6.45;;;;;;;;;;5046244;28;20399;-59
2021/08/24 14:11:55;;;;;;;11.07;7.07;;;;;;;;;;5045498;28;20033;-59
2021/08/24 14:14:51;;;;;;;10.93;7.60;;;;;;;;;;5045408;28;20037;-60
2021/08/24 14:17:55;;;;;;;10.43;7.20;;;;;;;;;;5047473;28;20534;-59
2021/08/24 14:20:38;;;;;;;9.73;6.88;;;;;;;;;;5040619;28;20048;-59
2021/08/24 14:23:26;;;;;;;13.02;7.25;;;;;;;;;;5042920;28;20120;-59
2021/08/24 14:25:58;;;;;;;9.95;6.88;;;;;;;;;;5043311;28;20060;-59
2021/08/24 14:28:30;;;;;;;9.63;6.95;;;;;;;;;;5059683;28;20134;-59
2021/08/24 14:30:57;;;;;;;12.57;7.40;;;;;;;;;;5047796;28;20111;-60
2021/08/24 14:33:28;;;;;;;11.18;7.40;;;;;;;;;;5047054;28;20037;-59
2021/08/24 14:36:00;;;;;;;10.40;7.20;;;;;;;;;;5047900;28;20025;-59
2021/08/24 14:38:39;;;;;;;11.13;7.18;;;;;;;;;;5051630;28;20091;-59
2021/08/24 14:41:16;;;;;;;11.05;7.70;;;;;;;;;;5044388;28;20035;-59
2021/08/24 14:44:18;;;;;;;10.80;7.82;;;;;;;;;;5050162;28;20127;-59
2021/08/24 14:46:53;;;;;;;12.68;7.75;;;;;;;;;;5025746;28;20041;-59
2021/08/24 14:49:25;;;;;;;9.27;6.75;;;;;;;;;;5051462;28;20048;-59
2021/08/24 14:51:51;;;;;;;13.48;7.60;;;;;;;;;;5048906;28;20387;-59
2021/08/24 14:54:28;;;;;;;9.63;7.30;;;;;;;;;;5051328;28;20487;-59
2021/08/24 14:56:54;;;;;;;12.40;7.38;;;;;;;;;;5049432;28;20620;-59
2021/08/24 14:59:19;;;;;;;15.98;8.35;;;;;;;;;;5049596;28;20024;-59
2021/08/24 15:02:06;;;;;;;13.23;7.40;;;;;;;;;;5047981;28;20075;-59
2021/08/24 15:04:34;;;;;;;12.43;7.70;;;;;;;;;;5046528;28;20052;-59